Time;durP1;ratioP1;P1;durP2;ratioP2;P2;SDS_P1;SDS_P2;PMS_P1;PMS_P2;Temp;Humidity;BMP_temperature;BMP_pressure;BME280_temperature;BME280_humidity;BME280_pressure;Samples;Min_cycle;Max_cycle;Signal;HPM_P1;HPM_P2
2022/09/02 00:01:30;;;;;;;3.30;2.47;;;;;;;15.13;83.05;98797.31;5032775;28;20104;-67
2022/09/02 00:03:57;;;;;;;;;;;;;;;15.20;83.64;98796.38;5034237;28;20384;-66
2022/09/02 00:06:23;;;;;;;2.70;2.42;;;;;;;14.96;84.85;98801.78;5033709;28;19913;-66
2022/09/02 00:08:49;;;;;;;3.45;2.45;;;;;;;14.91;86.59;98793.47;5031762;28;20052;-66
2022/09/02 00:11:17;;;;;;;3.20;2.47;;;;;;;14.77;88.65;98800.16;5032035;28;20033;-66
2022/09/02 00:13:43;;;;;;;4.90;2.70;;;;;;;14.68;89.18;98805.09;5028491;28;20037;-68
2022/09/02 00:16:10;;;;;;;4.10;2.83;;;;;;;14.77;88.18;98795.53;5031011;28;20025;-66
2022/09/02 00:18:36;;;;;;;8.82;3.50;;;;;;;14.79;87.23;98776.22;5029420;28;20109;-66
2022/09/02 00:21:02;;;;;;;4.88;2.92;;;;;;;14.95;86.26;98789.19;5028347;28;20031;-66
2022/09/02 00:23:27;;;;;;;3.88;2.40;;;;;;;14.92;85.22;98789.66;5031508;28;20052;-66
2022/09/02 00:25:53;;;;;;;2.95;2.30;;;;;;;14.74;86.13;98784.25;5031711;28;20029;-66
2022/09/02 00:28:18;;;;;;;5.80;2.63;;;;;;;14.50;89.55;98775.13;5030516;28;20029;-66
2022/09/02 00:30:44;;;;;;;4.05;2.55;;;;;;;14.25;92.16;98785.06;5025874;28;20071;-66
2022/09/02 00:33:11;;;;;;;4.28;2.55;;;;;;;14.06;94.94;98772.50;5028639;28;20029;-67
2022/09/02 00:35:36;;;;;;;3.60;2.55;;;;;;;13.90;96.59;98779.38;5009675;28;20095;-66
2022/09/02 00:38:03;;;;;;;3.45;2.80;;;;;;;13.91;97.07;98783.78;5027004;28;20491;-66
2022/09/02 00:40:29;;;;;;;5.22;2.67;;;;;;;13.94;96.81;98779.78;5029897;28;20082;-68
2022/09/02 00:42:54;;;;;;;2.83;2.20;;;;;;;13.87;95.95;98768.97;5027345;28;20116;-66
2022/09/02 00:45:21;;;;;;;4.20;2.65;;;;;;;13.95;98.02;98748.78;5029679;28;20112;-66
2022/09/02 00:47:49;;;;;;;3.95;2.65;;;;;;;14.05;97.31;98775.47;5025179;28;20474;-66
2022/09/02 00:50:16;;;;;;;5.53;2.70;;;;;;;13.90;98.25;98763.06;5029693;28;20028;-66
2022/09/02 00:52:49;;;;;;;5.22;2.75;;;;;;;13.87;97.20;98766.25;5029648;28;20041;-66
2022/09/02 00:55:21;;;;;;;6.32;2.20;;;;;;;13.86;96.37;98772.75;5030316;28;20080;-66
2022/09/02 00:57:59;;;;;;;3.15;2.30;;;;;;;13.74;97.05;98759.06;5028137;28;20033;-66
2022/09/02 01:00:32;;;;;;;4.95;2.30;;;;;;;13.74;99.11;98763.66;5024392;28;20045;-66
2022/09/02 01:03:01;;;;;;;2.75;2.22;;;;;;;13.66;97.92;98761.25;5027316;28;20064;-66
2022/09/02 01:05:30;;;;;;;3.05;2.25;;;;;;;13.53;99.83;98767.63;5028985;28;20033;-66
2022/09/02 01:07:56;;;;;;;;;;;;;;;13.61;99.51;98769.25;5022817;28;20040;-70
2022/09/02 01:10:25;;;;;;;3.58;2.17;;;;;;;13.62;99.30;98766.28;5029495;28;19916;-69
2022/09/02 01:12:55;;;;;;;3.43;2.33;;;;;;;13.49;100.00;98767.25;5028062;28;20104;-67
2022/09/02 01:15:21;;;;;;;3.00;1.92;;;;;;;13.49;100.00;98769.13;5028195;28;20406;-66
2022/09/02 01:17:49;;;;;;;3.60;2.45;;;;;;;13.41;99.17;98744.94;5030012;28;20108;-70
2022/09/02 01:20:24;;;;;;;3.15;2.50;;;;;;;13.73;95.49;98770.16;5028943;28;20032;-67
2022/09/02 01:22:50;;;;;;;6.43;2.60;;;;;;;13.78;95.58;98763.00;5028245;28;20033;-67
2022/09/02 01:25:23;;;;;;;4.10;2.42;;;;;;;13.74;96.92;98769.09;5024737;28;20770;-67
2022/09/02 01:27:49;;;;;;;2.85;2.20;;;;;;;13.62;95.89;98768.16;5025474;28;20025;-68
2022/09/02 01:30:20;;;;;;;2.55;1.90;;;;;;;13.67;96.71;98762.88;5020754;28;20108;-67
2022/09/02 01:32:45;;;;;;;3.95;2.30;;;;;;;13.64;96.70;98769.59;5029713;28;20071;-67
2022/09/02 01:35:11;;;;;;;5.53;2.20;;;;;;;13.58;96.27;98757.75;5026057;28;20049;-68
2022/09/02 01:37:38;;;;;;;4.82;2.35;;;;;;;13.53;97.71;98759.47;5004285;28;20051;-67
2022/09/02 01:40:08;;;;;;;3.75;2.20;;;;;;;13.47;97.91;98728.59;5027678;28;20026;-66
2022/09/02 01:42:34;;;;;;;4.65;2.50;;;;;;;13.46;99.32;98747.81;5024381;28;20033;-67
2022/09/02 01:44:59;;;;;;;4.15;2.45;;;;;;;13.48;98.20;98748.44;5028111;28;20025;-66
2022/09/02 01:47:26;;;;;;;7.55;2.50;;;;;;;13.52;97.76;98750.50;5029156;28;20106;-66
2022/09/02 01:49:52;;;;;;;3.10;2.42;;;;;;;13.63;96.71;98753.53;5024224;28;20076;-67
2022/09/02 01:52:18;;;;;;;3.22;2.15;;;;;;;13.64;96.42;98756.00;5028896;28;20100;-68
2022/09/02 01:54:44;;;;;;;3.20;2.30;;;;;;;13.43;95.87;98732.81;5025468;28;20399;-67
2022/09/02 01:57:10;;;;;;;3.53;2.00;;;;;;;13.65;94.34;98748.69;5025764;28;20080;-70
2022/09/02 01:59:36;;;;;;;4.75;2.13;;;;;;;13.60;95.00;98760.25;5029288;28;20033;-67
2022/09/02 02:02:01;;;;;;;3.28;2.22;;;;;;;13.60;94.24;98757.53;5026290;28;20068;-69
2022/09/02 02:04:27;;;;;;;5.10;2.47;;;;;;;13.67;94.18;98757.47;5025973;28;20821;-69
2022/09/02 02:06:52;;;;;;;4.80;2.38;;;;;;;13.45;96.40;98757.06;5025106;28;20120;-67
2022/09/02 02:09:18;;;;;;;3.47;2.40;;;;;;;13.40;98.12;98763.16;5028085;28;20033;-68
2022/09/02 02:11:44;;;;;;;4.50;2.60;;;;;;;13.33;98.09;98751.50;5022955;28;20052;-68
2022/09/02 02:14:11;;;;;;;3.72;2.45;;;;;;;13.55;96.55;98755.47;5027306;28;20040;-67
2022/09/02 02:16:36;;;;;;;3.33;2.10;;;;;;;13.49;96.89;98741.94;5026685;28;20029;-67
2022/09/02 02:19:03;;;;;;;2.83;2.17;;;;;;;13.42;99.28;98739.31;5028231;28;20073;-67
2022/09/02 02:21:28;;;;;;;4.68;2.30;;;;;;;13.50;97.37;98754.50;5029314;28;20029;-68
2022/09/02 02:23:54;;;;;;;3.97;2.65;;;;;;;13.36;100.00;98753.75;5030512;28;20079;-68
2022/09/02 02:26:19;;;;;;;8.93;2.25;;;;;;;13.21;100.00;98751.38;5027956;28;20021;-67
2022/09/02 02:28:44;;;;;;;3.53;2.53;;;;;;;12.99;100.00;98740.03;5029386;28;20013;-67
2022/09/02 02:31:10;;;;;;;4.65;2.38;;;;;;;12.93;100.00;98746.34;5021392;28;20158;-67
2022/09/02 02:33:37;;;;;;;5.57;2.70;;;;;;;12.81;100.00;98750.81;5028177;28;20061;-67
2022/09/02 02:36:04;;;;;;;2.60;1.98;;;;;;;12.74;100.00;98753.59;5027331;28;20026;-69
2022/09/02 02:38:31;;;;;;;3.25;2.38;;;;;;;12.51;100.00;98737.84;5028193;28;20033;-67
2022/09/02 02:40:57;;;;;;;4.47;2.20;;;;;;;12.55;100.00;98749.94;5027360;28;20040;-67
2022/09/02 02:43:23;;;;;;;3.88;2.33;;;;;;;12.45;100.00;98753.13;5024106;28;20022;-67
2022/09/02 02:45:49;;;;;;;6.72;2.40;;;;;;;12.45;100.00;98753.13;5028644;28;20664;-68
2022/09/02 02:48:14;;;;;;;3.35;2.33;;;;;;;12.34;100.00;98742.97;5027213;28;20038;-69
2022/09/02 02:50:40;;;;;;;5.13;2.58;;;;;;;12.32;100.00;98747.78;5024265;28;20025;-66
2022/09/02 02:53:06;;;;;;;3.30;2.58;;;;;;;12.39;100.00;98742.28;5026623;28;20036;-67
2022/09/02 02:55:31;;;;;;;2.50;2.20;;;;;;;12.22;100.00;98726.53;5020490;28;20025;-67
2022/09/02 02:57:57;;;;;;;3.13;2.33;;;;;;;12.34;100.00;98744.81;5027002;28;20068;-68
2022/09/02 03:00:27;;;;;;;5.20;2.33;;;;;;;12.16;100.00;98745.56;5031232;28;20025;-67
2022/09/02 03:02:58;;;;;;;4.60;2.60;;;;;;;12.14;100.00;98745.75;5027058;28;20037;-67
2022/09/02 03:05:23;;;;;;;4.63;2.53;;;;;;;12.17;100.00;98729.03;5028608;28;20030;-69
2022/09/02 03:07:49;;;;;;;3.17;2.30;;;;;;;12.27;100.00;98734.84;5027406;28;20038;-67
2022/09/02 03:10:15;;;;;;;2.58;1.92;;;;;;;12.24;100.00;98729.03;5029542;28;20076;-66
2022/09/02 03:12:40;;;;;;;2.88;2.35;;;;;;;12.35;100.00;98741.91;5025614;28;20474;-67
2022/09/02 03:15:07;;;;;;;4.65;2.88;;;;;;;12.31;100.00;98729.81;5028515;28;20025;-67
2022/09/02 03:17:33;;;;;;;3.42;2.60;;;;;;;12.38;100.00;98746.06;5033357;28;20018;-66
2022/09/02 03:19:58;;;;;;;4.65;2.65;;;;;;;12.21;100.00;98741.16;5028706;28;20102;-66
2022/09/02 03:22:25;;;;;;;4.40;2.67;;;;;;;12.03;100.00;98735.59;5014640;28;20064;-67
2022/09/02 03:24:51;;;;;;;5.38;2.38;;;;;;;12.10;100.00;98736.38;5027382;28;20462;-67
2022/09/02 03:27:16;;;;;;;3.25;2.50;;;;;;;12.16;100.00;98748.25;5015266;28;20065;-67
2022/09/02 03:29:43;;;;;;;7.80;2.60;;;;;;;12.31;100.00;98746.09;5031907;28;20072;-67
2022/09/02 03:32:08;;;;;;;3.45;2.53;;;;;;;12.25;100.00;98742.34;5013928;28;20041;-67
2022/09/02 03:34:34;;;;;;;4.90;2.67;;;;;;;12.36;100.00;98746.28;5027507;28;20093;-68
2022/09/02 03:36:59;;;;;;;5.68;2.47;;;;;;;12.36;100.00;98745.44;5031336;28;20029;-67
2022/09/02 03:39:24;;;;;;;4.10;2.60;;;;;;;12.40;100.00;98733.94;5030201;28;20108;-68
2022/09/02 03:41:50;;;;;;;4.43;2.40;;;;;;;12.35;100.00;98739.19;5032650;28;20025;-67
2022/09/02 03:44:15;;;;;;;3.08;2.58;;;;;;;12.31;100.00;98737.94;5032633;28;20029;-67
2022/09/02 03:46:41;;;;;;;3.92;2.50;;;;;;;12.31;100.00;98742.53;5032129;28;20029;-67
2022/09/02 03:49:06;;;;;;;2.92;2.42;;;;;;;12.39;100.00;98742.28;5033385;28;20079;-66
2022/09/02 03:51:33;;;;;;;2.67;2.10;;;;;;;12.34;100.00;98742.97;5031139;28;20029;-66
2022/09/02 03:53:58;;;;;;;5.15;2.30;;;;;;;12.24;100.00;98727.16;5031093;28;20036;-66
2022/09/02 03:56:24;;;;;;;4.15;2.50;;;;;;;12.27;100.00;98737.56;5025622;28;20034;-68
2022/09/02 03:58:51;;;;;;;3.10;2.25;;;;;;;12.18;100.00;98719.03;5027991;28;20060;-66
2022/09/02 04:01:20;;;;;;;4.10;2.60;;;;;;;12.29;100.00;98734.63;5027341;28;20033;-66
2022/09/02 04:03:46;;;;;;;3.58;2.60;;;;;;;11.88;100.00;98678.91;5028491;28;20029;-66
2022/09/02 04:06:14;;;;;;;3.85;2.47;;;;;;;11.99;100.00;98734.34;5026401;28;20029;-66
2022/09/02 04:08:40;;;;;;;2.95;2.50;;;;;;;11.98;100.00;98741.66;5030767;28;20074;-66
2022/09/02 04:11:08;;;;;;;4.35;2.70;;;;;;;12.05;100.00;98733.47;5028568;28;20515;-66
2022/09/02 04:13:34;;;;;;;2.83;2.40;;;;;;;11.97;100.00;98736.41;5028429;28;20025;-66
2022/09/02 04:16:05;;;;;;;5.70;2.40;;;;;;;12.03;100.00;98739.13;5018719;28;20065;-66
2022/09/02 04:18:30;;;;;;;4.32;2.63;;;;;;;12.11;100.00;98729.09;5028439;28;20425;-67
2022/09/02 04:20:58;;;;;;;4.35;2.42;;;;;;;11.83;100.00;98727.47;5025415;28;20033;-66
2022/09/02 04:23:24;;;;;;;7.65;2.47;;;;;;;11.97;100.00;98734.56;5028469;28;20029;-73
2022/09/02 04:25:49;;;;;;;3.85;2.58;;;;;;;11.75;100.00;98712.28;5026904;28;20479;-73
2022/09/02 04:28:14;;;;;;;4.13;2.40;;;;;;;11.70;100.00;98719.38;5009364;28;20437;-75
2022/09/02 04:30:41;;;;;;;3.95;2.33;;;;;;;11.68;100.00;98727.72;5027033;28;20029;-72
2022/09/02 04:33:07;;;;;;;3.47;2.50;;;;;;;11.49;100.00;98696.91;5024915;28;20037;-70
2022/09/02 04:35:34;;;;;;;6.53;2.60;;;;;;;11.43;100.00;98721.34;5030343;28;20029;-70
2022/09/02 04:38:00;;;;;;;3.70;2.65;;;;;;;11.45;100.00;98725.50;5010849;28;20060;-74
2022/09/02 04:40:25;;;;;;;4.32;2.67;;;;;;;11.36;100.00;98718.63;5030598;28;20420;-74
2022/09/02 04:42:52;;;;;;;3.13;2.10;;;;;;;11.42;100.00;98728.59;5028431;28;20025;-73
2022/09/02 04:45:18;;;;;;;6.82;2.80;;;;;;;11.34;100.00;98709.88;5029387;28;20083;-73
2022/09/02 04:47:43;;;;;;;6.60;2.70;;;;;;;11.43;100.00;98740.28;5027894;28;20831;-69
2022/09/02 04:50:09;;;;;;;4.45;2.83;;;;;;;11.37;100.00;98728.41;5031177;28;20104;-73
2022/09/02 04:52:35;;;;;;;3.95;2.30;;;;;;;11.38;100.00;98727.38;5028772;28;20410;-71
2022/09/02 04:55:00;;;;;;;4.25;2.65;;;;;;;11.55;100.00;98727.75;5027810;28;20033;-71
2022/09/02 04:57:25;;;;;;;3.67;2.42;;;;;;;11.40;100.00;98715.28;5022552;28;20031;-75
2022/09/02 04:59:51;;;;;;;3.85;2.50;;;;;;;11.67;100.00;98727.94;5037492;28;20056;-71
2022/09/02 05:02:17;;;;;;;3.80;2.47;;;;;;;11.68;100.00;98699.78;5030754;28;20029;-72
2022/09/02 05:04:42;;;;;;;6.28;2.80;;;;;;;12.01;100.00;98734.97;5025221;28;20025;-72
2022/09/02 05:07:07;;;;;;;3.67;2.47;;;;;;;12.10;100.00;98735.53;5029458;28;20069;-67
2022/09/02 05:09:33;;;;;;;5.20;2.60;;;;;;;12.38;100.00;98713.50;5028911;28;20108;-71
2022/09/02 05:12:02;;;;;;;3.58;2.25;;;;;;;12.64;100.00;98717.94;5031456;28;20033;-72
2022/09/02 05:14:27;;;;;;;3.47;2.58;;;;;;;12.74;100.00;98731.88;5026217;28;20060;-71
2022/09/02 05:16:53;;;;;;;3.95;2.22;;;;;;;12.80;100.00;98724.72;5027855;28;20115;-70
2022/09/02 05:19:22;;;;;;;2.70;2.13;;;;;;;13.01;98.33;98726.25;5028746;28;20562;-70
2022/09/02 05:21:49;;;;;;;4.38;2.20;;;;;;;13.06;98.00;98710.94;5020778;28;20062;-70
2022/09/02 05:24:15;;;;;;;2.90;2.10;;;;;;;13.07;97.93;98714.47;5023961;28;20029;-69
2022/09/02 05:26:43;;;;;;;6.75;2.53;;;;;;;13.19;97.44;98729.03;5029209;28;20037;-69
2022/09/02 05:29:11;;;;;;;2.80;2.20;;;;;;;13.19;96.50;98730.91;5022280;28;20040;-68
2022/09/02 05:31:39;;;;;;;2.60;2.10;;;;;;;13.32;94.23;98741.69;5025059;28;20060;-66
2022/09/02 05:34:04;;;;;;;5.32;2.35;;;;;;;13.47;93.72;98733.22;5026919;28;20510;-68
2022/09/02 05:36:31;;;;;;;3.58;2.40;;;;;;;13.59;91.00;98721.34;5021646;28;20029;-71
2022/09/02 05:38:58;;;;;;;5.13;2.00;;;;;;;14.01;88.34;98737.81;5024693;28;20501;-69
2022/09/02 05:41:24;;;;;;;2.45;2.15;;;;;;;14.94;78.06;98729.50;5024688;28;20052;-70
2022/09/02 05:43:51;;;;;;;3.70;2.17;;;;;;;15.86;72.39;98713.44;5031159;28;20049;-70
2022/09/02 05:46:19;;;;;;;2.88;1.98;;;;;;;16.98;66.70;98717.56;5025289;28;20042;-71
2022/09/02 05:51:31;;;;;;;3.10;1.90;;;;;;;18.28;60.96;98721.91;5018224;28;20684;-72
2022/09/02 05:53:59;;;;;;;3.33;1.70;;;;;;;18.02;60.96;98716.13;5028059;28;20049;-72
2022/09/02 05:56:24;;;;;;;2.55;1.85;;;;;;;17.52;61.30;98722.50;5028882;28;20029;-69
2022/09/02 05:58:50;;;;;;;3.53;2.20;;;;;;;19.48;56.12;98697.84;5006248;28;20029;-72
2022/09/02 06:01:17;;;;;;;2.50;1.50;;;;;;;21.60;50.65;98717.47;5026185;28;20502;-72
2022/09/02 06:03:43;;;;;;;4.28;1.50;;;;;;;23.17;46.92;98708.81;5030172;28;20056;-70
2022/09/02 06:06:09;;;;;;;2.80;1.63;;;;;;;23.98;44.43;98704.47;5029823;28;20049;-71
2022/09/02 06:08:34;;;;;;;3.72;1.50;;;;;;;24.87;43.29;98711.34;5024278;28;20044;-68
2022/09/02 06:11:01;;;;;;;2.80;1.60;;;;;;;24.32;42.87;98714.56;5030034;28;20025;-70
2022/09/02 06:13:28;;;;;;;4.20;1.50;;;;;;;25.35;41.16;98708.38;5028822;28;20025;-69
2022/09/02 06:15:54;;;;;;;3.80;1.60;;;;;;;25.14;41.25;98707.88;5027629;28;20509;-70
2022/09/02 06:18:19;;;;;;;2.10;1.17;;;;;;;25.01;41.57;98715.00;5027493;28;20029;-71
2022/09/02 06:20:46;;;;;;;2.95;1.48;;;;;;;25.72;40.36;98721.31;5025990;28;20029;-67
2022/09/02 06:23:13;;;;;;;3.03;1.33;;;;;;;26.86;38.20;98709.59;5029444;28;20550;-75
2022/09/02 06:25:42;;;;;;;3.15;1.48;;;;;;;26.49;38.47;98725.38;5023982;28;20065;-69
2022/09/02 06:28:08;;;;;;;4.50;1.40;;;;;;;26.17;38.71;98731.84;5008421;28;20442;-68
2022/09/02 06:30:34;;;;;;;2.30;1.20;;;;;;;26.11;39.21;98719.22;5023064;28;20029;-66
2022/09/02 06:33:02;;;;;;;3.05;1.20;;;;;;;25.09;40.51;98699.66;5020418;28;20026;-67
2022/09/02 06:35:27;;;;;;;5.70;1.48;;;;;;;25.24;40.59;98706.94;5024502;28;20040;-71
2022/09/02 06:37:53;;;;;;;2.53;1.25;;;;;;;25.96;39.28;98689.84;5028203;28;20033;-69
2022/09/02 06:40:18;;;;;;;2.10;1.20;;;;;;;26.49;38.43;98710.66;5022484;28;20520;-67
2022/09/02 06:42:44;;;;;;;4.03;1.42;;;;;;;26.08;38.87;98692.13;5019173;28;20464;-74
2022/09/02 06:45:09;;;;;;;3.15;1.50;;;;;;;25.40;39.67;98705.53;5024809;28;20025;-72
2022/09/02 06:47:35;;;;;;;4.03;1.50;;;;;;;24.90;40.87;98699.69;5020522;28;20025;-74
2022/09/02 06:50:00;;;;;;;2.95;1.27;;;;;;;25.49;40.25;98712.03;5026150;28;20491;-74
2022/09/02 06:52:26;;;;;;;2.40;1.30;;;;;;;26.91;37.62;98703.09;5005584;28;20067;-74
2022/09/02 06:54:53;;;;;;;2.63;1.50;;;;;;;26.60;37.77;98678.84;5024318;28;20021;-72
2022/09/02 06:57:19;;;;;;;3.85;1.45;;;;;;;25.46;39.87;98704.31;5020740;28;20021;-74
2022/09/02 06:59:45;;;;;;;3.35;1.63;;;;;;;25.40;39.89;98708.31;5003233;28;20025;-68
2022/09/02 07:02:10;;;;;;;2.63;1.17;;;;;;;25.04;40.57;98675.63;5023915;28;20044;-68
2022/09/02 07:07:19;;;;;;;2.22;1.35;;;;;;;25.50;40.03;98705.34;5026419;28;20542;-68
2022/09/02 07:09:45;;;;;;;4.65;1.30;;;;;;;27.04;37.51;98703.06;5024810;28;20029;-68
2022/09/02 07:12:11;;;;;;;2.83;1.30;;;;;;;27.67;36.15;98701.22;5023933;28;20393;-69
2022/09/02 07:14:39;;;;;;;3.03;1.30;;;;;;;28.60;34.30;98696.69;5022114;28;20324;-73
2022/09/02 07:17:05;;;;;;;1.88;1.20;;;;;;;25.72;38.95;98703.84;5028432;28;20021;-72
2022/09/02 07:19:31;;;;;;;2.47;1.60;;;;;;;26.29;38.54;98711.94;5026358;28;20101;-72
2022/09/02 07:21:56;;;;;;;3.03;1.50;;;;;;;27.14;37.16;98703.94;5024792;28;20021;-71
2022/09/02 07:24:22;;;;;;;2.63;1.27;;;;;;;27.27;36.61;98683.63;5030029;28;20025;-72
2022/09/02 07:26:48;;;;;;;3.63;1.45;;;;;;;27.64;36.08;98699.09;5024491;28;20475;-71
2022/09/02 07:29:15;;;;;;;1.85;1.20;;;;;;;29.11;34.14;98691.47;5022544;28;20044;-73
2022/09/02 07:31:44;;;;;;;2.05;1.25;;;;;;;29.22;33.76;98701.97;5013010;28;20258;-71
2022/09/02 07:34:10;;;;;;;1.75;1.00;;;;;;;30.33;32.29;98678.84;5025288;28;20029;-73
2022/09/02 07:36:36;;;;;;;2.28;1.35;;;;;;;27.50;36.11;98693.59;5024134;28;20033;-67
2022/09/02 07:39:05;;;;;;;3.42;1.38;;;;;;;26.63;37.51;98697.63;5020500;28;20664;-74
2022/09/02 07:41:30;;;;;;;2.70;1.20;;;;;;;26.66;37.35;98674.78;5013725;28;20029;-71
2022/09/02 07:43:56;;;;;;;5.50;1.52;;;;;;;27.03;37.10;98672.81;5027672;28;20025;-70
2022/09/02 07:46:21;;;;;;;2.50;1.10;;;;;;;27.87;35.77;98685.97;5030054;28;20112;-69
2022/09/02 07:48:49;;;;;;;3.08;1.30;;;;;;;29.16;33.79;98694.09;5012510;28;20478;-70
2022/09/02 07:51:15;;;;;;;3.60;1.30;;;;;;;28.44;34.22;98682.41;5031219;28;20029;-70
2022/09/02 07:53:42;;;;;;;2.50;1.20;;;;;;;28.41;34.47;98694.97;5027188;28;20044;-72
2022/09/02 07:56:07;;;;;;;1.90;1.15;;;;;;;28.16;35.21;98698.50;5031903;28;20881;-69
2022/09/02 07:58:33;;;;;;;2.25;1.50;;;;;;;28.60;34.87;98680.78;5024292;28;20095;-70
2022/09/02 08:00:58;;;;;;;2.97;1.00;;;;;;;29.22;33.16;98667.72;5029269;28;20037;-72
2022/09/02 08:03:25;;;;;;;1.50;1.10;;;;;;;28.66;33.87;98670.31;5029972;28;20548;-74
2022/09/02 08:05:50;;;;;;;2.88;1.30;;;;;;;29.78;33.17;98685.31;5013357;28;20036;-75
2022/09/02 08:08:19;;;;;;;2.75;1.20;;;;;;;30.31;31.72;98681.16;5030423;28;20022;-71
2022/09/02 08:10:46;;;;;;;2.40;1.10;;;;;;;30.17;32.01;98668.56;5030414;28;20128;-69
2022/09/02 08:13:11;;;;;;;2.78;0.90;;;;;;;30.97;30.92;98686.16;5029119;28;20107;-71
2022/09/02 08:15:37;;;;;;;1.85;1.20;;;;;;;30.94;31.13;98692.44;5025614;28;20064;-70
2022/09/02 08:18:03;;;;;;;3.60;0.85;;;;;;;30.64;31.44;98694.41;5030258;28;20036;-68
2022/09/02 08:20:31;;;;;;;2.28;0.90;;;;;;;31.00;31.00;98685.47;5023254;28;20017;-68
2022/09/02 08:22:57;;;;;;;5.75;1.15;;;;;;;31.68;29.89;98692.72;5028950;28;20102;-66
2022/09/02 08:25:23;;;;;;;1.73;1.00;;;;;;;31.17;30.13;98690.06;5028598;28;20558;-71
2022/09/02 08:27:48;;;;;;;1.55;1.00;;;;;;;31.40;30.37;98686.94;5009432;28;20083;-73
2022/09/02 08:30:14;;;;;;;1.85;1.00;;;;;;;30.86;30.59;98689.69;5023641;28;20037;-69
2022/09/02 08:32:40;;;;;;;2.50;1.10;;;;;;;30.82;30.90;98670.00;5022745;28;20048;-69
2022/09/02 08:35:08;;;;;;;1.98;1.05;;;;;;;32.39;28.70;98676.69;5029397;28;20067;-71
2022/09/02 08:37:34;;;;;;;1.87;1.10;;;;;;;33.11;28.03;98680.53;5028258;28;20036;-71
2022/09/02 08:40:05;;;;;;;1.42;1.08;;;;;;;32.45;28.75;98678.09;5023734;28;20094;-73
2022/09/02 08:42:43;;;;;;;1.55;0.82;;;;;;;32.29;28.38;98670.41;5000598;28;20623;-67
2022/09/02 08:45:16;;;;;;;;;;;;;;;32.16;28.52;98673.56;5021612;28;20034;-71
2022/09/02 08:47:46;;;;;;;4.20;0.90;;;;;;;33.44;27.76;98665.44;5029618;28;20007;-70
2022/09/02 08:50:15;;;;;;;1.02;0.80;;;;;;;32.21;28.30;98670.53;5028725;28;20112;-69
2022/09/02 08:52:57;;;;;;;1.52;0.95;;;;;;;32.63;28.10;98668.28;5028253;28;20021;-73
2022/09/02 08:55:29;;;;;;;2.65;0.80;;;;;;;32.96;27.30;98664.47;5025614;28;20100;-75
2022/09/02 08:57:55;;;;;;;1.80;0.88;;;;;;;32.50;27.69;98673.09;5028890;28;20395;-68
2022/09/02 09:00:21;;;;;;;3.08;0.70;;;;;;;32.06;27.51;98647.66;5031348;28;20044;-70
2022/09/02 09:03:09;;;;;;;3.83;0.90;;;;;;;32.06;28.27;98664.44;5024474;28;20033;-70
2022/09/02 09:06:05;;;;;;;1.10;0.75;;;;;;;32.73;27.24;98664.19;5025658;28;20037;-71
2022/09/02 09:08:53;;;;;;;1.85;0.75;;;;;;;32.08;27.28;98661.31;5025381;28;20033;-66
2022/09/02 09:11:43;;;;;;;2.22;0.70;;;;;;;32.09;27.69;98663.78;5011366;28;20052;-66
2022/09/02 09:14:20;;;;;;;1.60;0.80;;;;;;;32.40;27.25;98651.13;5025653;28;20069;-62
2022/09/02 09:17:04;;;;;;;1.58;0.63;;;;;;;31.74;27.89;98666.16;5023875;28;20782;-66
2022/09/02 09:19:43;;;;;;;1.35;0.77;;;;;;;31.75;27.34;98650.19;5022809;28;20230;-65
2022/09/02 09:22:13;;;;;;;3.40;0.82;;;;;;;32.31;27.51;98647.66;5022861;28;20476;-66
2022/09/02 09:24:41;;;;;;;1.92;0.77;;;;;;;33.43;26.25;98640.53;5024371;28;20029;-65
2022/09/02 09:27:12;;;;;;;;;;;;;;;33.27;26.05;98641.31;5023556;28;20029;-66
2022/09/02 09:29:37;;;;;;;1.60;0.80;;;;;;;33.16;26.42;98624.22;5027103;28;19971;-68
2022/09/02 09:32:05;;;;;;;2.35;0.82;;;;;;;34.30;25.02;98639.59;5025251;28;20041;-67
2022/09/02 09:34:52;;;;;;;1.75;0.77;;;;;;;34.64;24.67;98638.00;5023173;28;20450;-68
2022/09/02 09:37:38;;;;;;;1.88;0.70;;;;;;;32.96;25.56;98626.03;5019427;28;20112;-68
2022/09/02 09:43:04;;;;;;;0.75;0.60;;;;;;;33.37;24.89;98629.59;5024082;28;20402;-66
2022/09/02 09:45:40;;;;;;;2.22;0.90;;;;;;;33.50;24.37;98621.09;5026440;28;20048;-66
2022/09/02 09:48:15;;;;;;;1.35;0.70;;;;;;;32.49;25.67;98628.66;5026308;28;20024;-66
2022/09/02 09:50:44;;;;;;;9.13;1.60;;;;;;;32.06;26.34;98616.06;5022768;28;20029;-66
2022/09/02 09:53:31;;;;;;;15.65;2.15;;;;;;;32.48;25.88;98630.59;5025863;28;20040;-66
2022/09/02 09:56:05;;;;;;;5.47;1.08;;;;;;;32.69;25.32;98624.03;5001174;28;20022;-66
2022/09/02 09:58:39;;;;;;;2.30;0.70;;;;;;;33.52;25.06;98608.34;5024214;28;20076;-66
2022/09/02 10:01:21;;;;;;;0.63;0.50;;;;;;;33.33;24.23;98619.47;5022662;28;20098;-67
2022/09/02 10:04:24;;;;;;;3.08;0.70;;;;;;;32.19;24.65;98602.88;5022172;28;20022;-67
2022/09/02 10:06:50;;;;;;;1.70;0.65;;;;;;;32.23;24.33;98607.41;5025747;28;20112;-73
2022/09/02 10:09:18;;;;;;;2.15;0.50;;;;;;;31.93;23.74;98612.44;5025883;28;20144;-68
2022/09/02 10:12:03;;;;;;;1.27;0.55;;;;;;;32.92;23.37;98608.28;5029087;28;20033;-74
2022/09/02 10:14:38;;;;;;;2.30;0.60;;;;;;;33.31;22.62;98608.59;5027054;28;20017;-65
2022/09/02 10:17:26;;;;;;;2.80;0.60;;;;;;;33.10;23.46;98608.81;5023454;28;20025;-63
2022/09/02 10:20:16;;;;;;;3.25;0.68;;;;;;;31.73;24.46;98602.16;5022285;28;20029;-66
2022/09/02 10:22:56;;;;;;;0.60;0.60;;;;;;;31.35;24.64;98594.84;5026689;28;20522;-66
2022/09/02 10:25:54;;;;;;;2.80;0.57;;;;;;;30.30;25.27;98603.34;5025236;28;20025;-66
2022/09/02 10:29:05;;;;;;;1.27;0.80;;;;;;;31.24;24.77;98605.66;5023764;28;20029;-66
2022/09/02 10:31:42;;;;;;;0.90;0.60;;;;;;;30.99;24.33;98597.22;5025247;28;20031;-67
2022/09/02 10:34:19;;;;;;;1.35;0.52;;;;;;;31.10;24.30;98596.75;5027351;28;20029;-66
2022/09/02 10:37:13;;;;;;;1.95;0.45;;;;;;;32.34;24.39;98606.94;5021613;28;22037;-64
2022/09/02 10:39:57;;;;;;;1.50;0.60;;;;;;;32.86;23.71;98590.13;5023328;28;20021;-66
2022/09/02 10:42:53;;;;;;;1.52;0.63;;;;;;;33.42;23.04;98594.03;5027789;28;20029;-67
2022/09/02 10:45:42;;;;;;;1.05;0.60;;;;;;;32.96;24.37;98583.19;5024593;28;20397;-67
2022/09/02 10:48:53;;;;;;;2.08;0.60;;;;;;;32.01;24.71;98588.31;5021018;28;20091;-66
2022/09/02 10:51:21;;;;;;;1.50;0.70;;;;;;;32.90;24.12;98577.00;5025603;28;20026;-66
2022/09/02 10:53:50;;;;;;;0.88;0.50;;;;;;;33.13;24.06;98579.25;5024876;28;20033;-66
2022/09/02 10:56:22;;;;;;;0.70;0.55;;;;;;;33.22;23.66;98551.06;5025156;28;20017;-67
2022/09/02 10:59:00;;;;;;;0.70;0.55;;;;;;;34.40;22.07;98565.16;5017639;28;20037;-66
2022/09/02 11:01:30;;;;;;;1.52;0.60;;;;;;;33.41;23.14;98558.78;5024981;28;20031;-66
2022/09/02 11:04:08;;;;;;;3.10;0.65;;;;;;;32.82;23.74;98555.56;5023370;28;20096;-66
2022/09/02 11:06:39;;;;;;;1.73;0.70;;;;;;;33.01;23.64;98548.47;5013827;28;20505;-66
2022/09/02 11:09:20;;;;;;;1.88;0.65;;;;;;;32.25;24.50;98549.09;5023885;28;20064;-65
2022/09/02 11:11:54;;;;;;;1.15;0.70;;;;;;;31.53;25.37;98545.97;5024202;28;20022;-65
2022/09/02 11:14:33;;;;;;;1.35;0.50;;;;;;;31.85;24.24;98537.81;5023982;28;20203;-64
2022/09/02 11:17:09;;;;;;;1.25;0.68;;;;;;;31.92;24.56;98542.84;5000746;28;20025;-66
2022/09/02 11:19:45;;;;;;;0.95;0.50;;;;;;;32.38;24.14;98535.84;5027625;28;20032;-69
2022/09/02 11:22:56;;;;;;;1.40;0.50;;;;;;;33.60;22.84;98531.63;5024539;28;20029;-70
2022/09/02 11:25:51;;;;;;;1.38;0.70;;;;;;;32.93;22.67;98530.63;5014315;28;20029;-66
2022/09/02 11:28:28;;;;;;;2.67;0.80;;;;;;;32.82;23.75;98535.13;5030549;28;20064;-75
2022/09/02 11:31:19;;;;;;;2.03;0.50;;;;;;;33.68;23.19;98517.78;5031483;28;20045;-69
2022/09/02 11:33:53;;;;;;;1.38;0.50;;;;;;;31.29;24.58;98512.38;5030268;28;20098;-69
2022/09/02 11:36:19;;;;;;;0.82;0.68;;;;;;;31.35;24.73;98516.59;5025361;28;20029;-69
2022/09/02 11:38:49;;;;;;;0.93;0.63;;;;;;;32.15;23.97;98516.00;5025001;28;20386;-69
2022/09/02 11:41:41;;;;;;;1.30;0.70;;;;;;;32.79;23.67;98514.25;5025949;28;20037;-65
2022/09/02 11:44:15;;;;;;;3.10;0.50;;;;;;;33.03;23.57;98510.53;5032448;28;20106;-72
2022/09/02 11:46:57;;;;;;;5.97;0.60;;;;;;;33.11;23.29;98517.13;5026545;28;20067;-69
2022/09/02 11:49:48;;;;;;;1.10;0.57;;;;;;;33.61;22.98;98512.81;5026626;28;20036;-68
2022/09/02 11:52:50;;;;;;;1.25;0.50;;;;;;;35.40;21.68;98507.28;5028563;28;20035;-67